createdAt,value
2017-06-20T00:01:35.441Z,54.40
2017-06-20T00:04:02.512Z,54.40
2017-06-20T00:06:29.327Z,54.70
2017-06-20T00:08:55.832Z,54.50
2017-06-20T00:11:22.603Z,53.90
2017-06-20T00:13:49.239Z,53.90
2017-06-20T00:16:16.094Z,53.20
2017-06-20T00:18:43.538Z,53.20
2017-06-20T00:21:10.177Z,53.20
2017-06-20T00:23:37.431Z,53.10
2017-06-20T00:26:04.067Z,53.10
2017-06-20T00:28:30.683Z,52.90
2017-06-20T00:30:57.343Z,52.80
2017-06-20T00:33:23.852Z,53.00
2017-06-20T00:35:50.596Z,52.80
2017-06-20T00:38:17.782Z,52.90
2017-06-20T00:40:44.509Z,52.80
2017-06-20T00:43:11.145Z,52.80
2017-06-20T00:45:38.320Z,52.80
2017-06-20T00:48:05.753Z,53.20
2017-06-20T00:50:32.392Z,53.20
2017-06-20T00:52:59.029Z,53.30
2017-06-20T00:55:25.640Z,53.40
2017-06-20T00:57:52.244Z,53.70
2017-06-20T01:00:18.918Z,53.80
2017-06-20T01:02:45.581Z,54.20
2017-06-20T01:05:12.193Z,54.60
2017-06-20T01:07:38.855Z,54.70
2017-06-20T01:10:29.661Z,54.90
2017-06-20T01:12:56.298Z,55.40
2017-06-20T01:15:22.937Z,55.00
2017-06-20T01:17:49.573Z,55.40
2017-06-20T01:20:16.190Z,55.30
2017-06-20T01:22:42.850Z,55.00
2017-06-20T01:25:09.489Z,55.30
2017-06-20T01:27:36.124Z,55.50
2017-06-20T01:30:03.179Z,55.40
2017-06-20T01:32:31.070Z,54.60
2017-06-20T01:34:57.883Z,54.90
2017-06-20T01:37:24.520Z,54.70
2017-06-20T01:39:51.134Z,54.80
2017-06-20T01:42:17.767Z,55.10
2017-06-20T01:44:44.365Z,55.40
2017-06-20T01:47:11.049Z,55.70
2017-06-20T01:49:37.708Z,56.40
2017-06-20T01:52:05.474Z,56.60
2017-06-20T01:54:32.214Z,56.50
2017-06-20T01:56:59.645Z,56.70
2017-06-20T01:59:26.315Z,56.70
2017-06-20T02:01:53.738Z,57.00
2017-06-20T02:04:20.377Z,57.00
2017-06-20T02:06:47.041Z,57.60
2017-06-20T02:09:14.280Z,57.30
2017-06-20T02:11:40.915Z,57.40
2017-06-20T02:14:07.776Z,58.20
2017-06-20T02:16:35.028Z,57.90
2017-06-20T02:19:01.638Z,57.50
2017-06-20T02:21:28.305Z,58.30
2017-06-20T02:23:55.760Z,59.00
2017-06-20T02:26:22.808Z,59.50
2017-06-20T02:28:49.427Z,59.10
2017-06-20T02:31:16.054Z,59.00
2017-06-20T02:33:42.723Z,59.50
2017-06-20T02:36:10.792Z,59.30
2017-06-20T02:38:37.430Z,59.20
2017-06-20T02:41:18.698Z,59.10
2017-06-20T02:44:00.210Z,58.90
2017-06-20T02:46:43.085Z,58.80
2017-06-20T02:49:26.020Z,58.90
2017-06-20T02:52:07.323Z,58.70
2017-06-20T02:54:48.322Z,59.10
2017-06-20T02:57:30.390Z,59.00
2017-06-20T03:00:11.806Z,59.10
2017-06-20T03:02:53.149Z,59.20
2017-06-20T03:05:34.723Z,59.20
2017-06-20T03:08:17.062Z,59.30
2017-06-20T03:11:17.723Z,59.70
2017-06-20T03:13:55.184Z,59.60
2017-06-20T03:16:38.243Z,60.60
2017-06-20T03:19:32.933Z,60.40
2017-06-20T03:21:59.741Z,60.70
2017-06-20T03:24:27.616Z,60.80
2017-06-20T03:26:55.063Z,61.80
2017-06-20T03:29:22.555Z,61.60
2017-06-20T03:31:49.344Z,61.60
2017-06-20T03:34:16.003Z,61.80
2017-06-20T03:36:42.617Z,61.30
2017-06-20T03:39:09.277Z,61.40
2017-06-20T03:41:36.608Z,61.60
2017-06-20T03:44:03.348Z,61.60
2017-06-20T03:46:44.961Z,61.20
2017-06-20T03:49:11.597Z,61.40
2017-06-20T03:51:39.625Z,61.70
2017-06-20T03:54:06.276Z,61.20
2017-06-20T03:56:33.160Z,61.50
2017-06-20T03:59:00.576Z,61.80
2017-06-20T04:01:27.216Z,61.70
2017-06-20T04:03:53.882Z,61.90
2017-06-20T04:06:36.232Z,61.00
2017-06-20T04:09:02.903Z,61.10
2017-06-20T04:11:29.565Z,60.60
2017-06-20T04:13:56.204Z,61.50
2017-06-20T04:16:24.156Z,60.20
2017-06-20T04:18:50.785Z,60.00
2017-06-20T04:21:23.464Z,59.90
2017-06-20T04:23:50.740Z,61.50
2017-06-20T04:26:18.907Z,61.90
2017-06-20T04:28:45.536Z,61.40
2017-06-20T04:31:12.064Z,60.50
2017-06-20T04:33:38.655Z,61.60
2017-06-20T04:36:05.441Z,62.60
2017-06-20T04:38:32.183Z,61.70
2017-06-20T04:40:59.405Z,61.90
2017-06-20T04:43:26.521Z,61.10
2017-06-20T04:45:53.963Z,61.70
2017-06-20T04:48:21.386Z,62.10
2017-06-20T04:50:48.031Z,62.80
2017-06-20T04:53:14.668Z,61.10
2017-06-20T04:55:41.433Z,61.00
2017-06-20T04:58:08.685Z,60.70
2017-06-20T05:00:35.325Z,60.90
2017-06-20T05:03:02.793Z,61.60
2017-06-20T05:05:29.418Z,62.10
2017-06-20T05:07:58.513Z,61.50
2017-06-20T05:10:33.409Z,60.60
2017-06-20T05:12:59.957Z,60.60
2017-06-20T05:15:26.596Z,60.90
2017-06-20T05:17:53.961Z,60.80
2017-06-20T05:20:20.714Z,60.60
2017-06-20T05:22:47.353Z,60.70
2017-06-20T05:25:14.809Z,59.80
2017-06-20T05:27:41.446Z,60.10
2017-06-20T05:30:08.086Z,60.10
2017-06-20T05:32:35.249Z,60.20
2017-06-20T05:35:01.948Z,59.20
2017-06-20T05:37:28.612Z,59.70
2017-06-20T05:39:56.154Z,59.80
2017-06-20T05:42:22.888Z,59.30
2017-06-20T05:44:49.991Z,57.70
2017-06-20T05:47:16.597Z,57.20
2017-06-20T05:49:43.850Z,58.00
2017-06-20T05:52:10.487Z,58.20
2017-06-20T05:54:37.102Z,58.30
2017-06-20T05:57:03.763Z,57.90
2017-06-20T05:59:30.373Z,57.80
2017-06-20T06:01:56.905Z,58.90
2017-06-20T06:04:23.574Z,58.40
2017-06-20T06:06:50.212Z,58.40
2017-06-20T06:09:16.953Z,58.20
2017-06-20T06:11:43.567Z,57.20
2017-06-20T06:14:10.228Z,57.50
2017-06-20T06:16:36.732Z,56.60
2017-06-20T06:19:03.403Z,56.60
2017-06-20T06:21:30.018Z,57.10
2017-06-20T06:23:57.091Z,56.80
2017-06-20T06:26:23.909Z,57.30
2017-06-20T06:28:51.183Z,55.70
2017-06-20T06:31:17.740Z,55.80
2017-06-20T06:33:44.434Z,56.50
2017-06-20T06:36:10.980Z,56.30
2017-06-20T06:38:37.506Z,55.80
2017-06-20T06:41:04.169Z,56.00
2017-06-20T06:43:30.701Z,54.50
2017-06-20T06:45:57.340Z,54.80
2017-06-20T06:48:23.978Z,54.60
2017-06-20T06:50:50.529Z,54.30
2017-06-20T06:53:17.766Z,52.20
2017-06-20T06:55:46.042Z,51.90
2017-06-20T06:58:13.271Z,51.90
2017-06-20T07:00:39.933Z,51.00
2017-06-20T07:03:07.027Z,50.30
2017-06-20T07:05:33.598Z,49.60
2017-06-20T07:08:00.870Z,48.80
2017-06-20T07:10:28.123Z,49.30
2017-06-20T07:12:54.760Z,48.80
2017-06-20T07:15:21.378Z,48.00
2017-06-20T07:17:48.490Z,45.20
2017-06-20T07:20:15.059Z,45.40
2017-06-20T07:22:42.631Z,44.60
2017-06-20T07:25:09.133Z,43.30
2017-06-20T07:27:36.637Z,43.50
2017-06-20T07:30:03.769Z,43.00
2017-06-20T07:32:30.321Z,43.70
2017-06-20T07:34:56.936Z,44.50
2017-06-20T07:37:23.597Z,42.50
2017-06-20T07:39:50.235Z,41.20
2017-06-20T07:42:16.820Z,40.80
2017-06-20T07:44:44.024Z,40.00
2017-06-20T07:47:10.660Z,39.20
2017-06-20T07:49:37.299Z,38.80
2017-06-20T07:52:03.937Z,37.30
2017-06-20T07:54:30.550Z,36.70
2017-06-20T07:56:57.829Z,35.40
2017-06-20T07:59:24.463Z,35.40
2017-06-20T08:01:51.204Z,35.80
2017-06-20T08:04:17.843Z,34.10
2017-06-20T08:06:44.480Z,33.50
2017-06-20T08:09:11.018Z,32.50
2017-06-20T08:11:37.653Z,31.30
2017-06-20T08:14:04.264Z,31.80
2017-06-20T08:16:30.928Z,31.10
2017-06-20T08:18:57.466Z,32.70
2017-06-20T08:21:31.314Z,32.60
2017-06-20T08:23:57.909Z,32.50
2017-06-20T08:26:25.059Z,32.90
2017-06-20T08:28:52.516Z,35.60
2017-06-20T08:31:19.153Z,34.90
2017-06-20T08:33:46.337Z,33.60
2017-06-20T08:36:13.659Z,32.60
2017-06-20T08:38:40.269Z,34.00
2017-06-20T08:41:06.935Z,32.50
2017-06-20T08:43:33.987Z,30.70
2017-06-20T08:46:00.592Z,30.60
2017-06-20T08:48:27.360Z,31.10
2017-06-20T08:50:54.078Z,32.70
2017-06-20T08:53:20.738Z,31.80
2017-06-20T08:55:47.376Z,29.90
2017-06-20T08:58:13.991Z,31.50
2017-06-20T09:00:42.881Z,31.30
2017-06-20T09:03:09.940Z,30.10
2017-06-20T09:05:36.593Z,29.60
2017-06-20T09:08:03.227Z,27.90
2017-06-20T09:10:33.551Z,28.40
2017-06-20T09:13:00.190Z,29.00
2017-06-20T09:15:26.805Z,27.90
2017-06-20T09:17:53.442Z,27.80
2017-06-20T09:20:20.078Z,29.60
2017-06-20T09:22:46.743Z,28.70
2017-06-20T09:25:13.995Z,28.90
2017-06-20T09:27:41.426Z,29.10
2017-06-20T09:30:08.110Z,28.60
2017-06-20T09:32:34.728Z,28.50
2017-06-20T09:35:01.816Z,28.00
2017-06-20T09:37:28.398Z,28.30
2017-06-20T09:39:55.050Z,26.70
2017-06-20T09:42:21.690Z,28.00
2017-06-20T09:44:53.008Z,27.20
2017-06-20T09:47:20.288Z,27.60
2017-06-20T09:49:47.646Z,26.60
2017-06-20T09:52:14.281Z,26.50
2017-06-20T09:54:41.127Z,26.40
2017-06-20T09:57:07.752Z,25.90
2017-06-20T09:59:34.304Z,25.70
2017-06-20T10:02:01.653Z,25.40
2017-06-20T10:04:29.296Z,24.10
2017-06-20T10:06:55.848Z,22.90
2017-06-20T10:09:22.489Z,22.30
2017-06-20T10:11:49.501Z,23.10
2017-06-20T10:14:16.172Z,22.90
2017-06-20T10:16:42.812Z,21.90
2017-06-20T10:19:09.449Z,21.30
2017-06-20T10:21:36.088Z,21.10
2017-06-20T10:24:02.725Z,21.20
2017-06-20T10:26:29.339Z,20.90
2017-06-20T10:28:55.972Z,21.10
2017-06-20T10:31:23.104Z,21.10
2017-06-20T10:33:49.685Z,21.00
2017-06-20T10:36:16.996Z,20.30
2017-06-20T10:38:43.780Z,20.20
2017-06-20T10:41:10.290Z,19.90
2017-06-20T10:43:37.056Z,20.20
2017-06-20T10:46:04.218Z,20.00
2017-06-20T10:48:30.946Z,20.70
2017-06-20T10:50:57.562Z,19.50
2017-06-20T10:53:24.775Z,22.70
2017-06-20T10:55:51.475Z,26.10
2017-06-20T10:58:18.114Z,25.60
2017-06-20T11:00:44.724Z,25.00
2017-06-20T11:03:11.390Z,25.50
2017-06-20T11:05:37.925Z,26.40
2017-06-20T11:08:04.508Z,27.40
2017-06-20T11:10:31.200Z,28.10
2017-06-20T11:12:57.812Z,27.80
2017-06-20T11:15:24.452Z,27.10
2017-06-20T11:17:51.744Z,28.20
2017-06-20T11:20:19.188Z,28.80
2017-06-20T11:22:45.796Z,28.20
2017-06-20T11:25:12.437Z,28.80
2017-06-20T11:27:40.069Z,27.70
2017-06-20T11:30:06.765Z,28.10
2017-06-20T11:32:34.222Z,28.80
2017-06-20T11:35:00.856Z,28.80
2017-06-20T11:37:27.494Z,29.50
2017-06-20T11:39:54.104Z,29.40
2017-06-20T11:42:20.745Z,28.20
2017-06-20T11:44:47.410Z,29.10
2017-06-20T11:47:14.052Z,28.90
2017-06-20T11:49:41.477Z,28.40
2017-06-20T11:52:08.047Z,28.40
2017-06-20T11:54:34.577Z,29.00
2017-06-20T11:57:01.187Z,28.00
2017-06-20T11:59:27.849Z,26.90
2017-06-20T12:01:54.461Z,27.70
2017-06-20T12:04:21.126Z,26.90
2017-06-20T12:06:48.201Z,28.40
2017-06-20T12:09:14.811Z,27.90
2017-06-20T12:11:41.448Z,28.80
2017-06-20T12:14:08.086Z,28.90
2017-06-20T12:16:34.724Z,30.50
2017-06-20T12:19:01.397Z,30.70
2017-06-20T12:21:27.985Z,31.10
2017-06-20T12:23:54.740Z,31.00
2017-06-20T12:26:21.994Z,30.40
2017-06-20T12:28:48.606Z,30.50
2017-06-20T12:31:15.269Z,30.60
2017-06-20T12:33:42.537Z,30.70
2017-06-20T12:36:09.978Z,31.40
2017-06-20T12:38:37.437Z,31.40
2017-06-20T12:41:04.075Z,31.50
2017-06-20T12:43:31.327Z,31.70
2017-06-20T12:45:57.943Z,31.10
2017-06-20T12:48:24.602Z,32.10
2017-06-20T12:50:51.318Z,31.30
2017-06-20T12:53:33.545Z,31.70
2017-06-20T12:56:00.161Z,30.60
2017-06-20T12:58:26.820Z,30.70
2017-06-20T13:00:53.435Z,30.90
2017-06-20T13:03:20.097Z,30.40
2017-06-20T13:05:46.735Z,30.60
2017-06-20T13:08:14.605Z,30.40
2017-06-20T13:10:41.218Z,29.80
2017-06-20T13:13:07.877Z,30.60
2017-06-20T13:15:34.490Z,31.40
2017-06-20T13:18:01.153Z,30.60
2017-06-20T13:20:27.769Z,30.60
2017-06-20T13:22:54.373Z,31.10
2017-06-20T13:25:21.067Z,31.40
2017-06-20T13:27:48.285Z,30.70
2017-06-20T13:30:15.580Z,31.50
2017-06-20T13:32:43.629Z,31.90
2017-06-20T13:35:10.256Z,31.80
2017-06-20T13:37:36.919Z,32.20
2017-06-20T13:40:03.637Z,31.80
2017-06-20T13:42:30.273Z,31.10
2017-06-20T13:44:56.933Z,31.00
2017-06-20T13:47:23.572Z,31.00
2017-06-20T13:49:50.315Z,31.90
2017-06-20T13:52:17.568Z,31.50
2017-06-20T13:54:44.206Z,33.00
2017-06-20T13:57:10.788Z,32.70
2017-06-20T13:59:37.453Z,33.60
2017-06-20T14:02:04.117Z,33.70
2017-06-20T14:04:30.755Z,32.80
2017-06-20T14:06:57.393Z,32.90
2017-06-20T14:09:24.009Z,33.70
2017-06-20T14:11:50.584Z,33.10
2017-06-20T14:14:18.638Z,33.20
2017-06-20T14:16:45.251Z,32.80
2017-06-20T14:19:11.895Z,32.60
2017-06-20T14:21:38.525Z,33.80
2017-06-20T14:24:05.268Z,33.70
2017-06-20T14:26:31.929Z,33.00
2017-06-20T14:28:59.182Z,33.00
2017-06-20T14:31:25.722Z,32.30
2017-06-20T14:33:52.355Z,32.50
2017-06-20T14:36:19.856Z,33.40
2017-06-20T14:38:46.407Z,33.70
2017-06-20T14:41:13.073Z,32.40
2017-06-20T14:43:39.936Z,32.60
2017-06-20T14:46:07.899Z,32.80
2017-06-20T14:48:34.640Z,32.70
2017-06-20T14:51:01.278Z,32.70
2017-06-20T14:53:27.916Z,32.10
2017-06-20T14:55:54.762Z,32.70
2017-06-20T14:58:21.268Z,32.90
2017-06-20T15:00:48.240Z,32.40
2017-06-20T15:03:14.856Z,32.50
2017-06-20T15:05:41.492Z,32.60
2017-06-20T15:08:08.973Z,32.10
2017-06-20T15:10:35.809Z,33.40
2017-06-20T15:13:02.453Z,33.00
2017-06-20T15:15:29.065Z,32.80
2017-06-20T15:17:55.728Z,32.40
2017-06-20T15:20:22.343Z,32.70
2017-06-20T15:22:52.897Z,33.00
2017-06-20T15:25:19.534Z,33.10
2017-06-20T15:27:46.173Z,33.80
2017-06-20T15:30:13.625Z,33.10
2017-06-20T15:32:40.241Z,33.60
2017-06-20T15:35:06.913Z,33.20
2017-06-20T15:37:34.362Z,32.80
2017-06-20T15:40:01.000Z,32.80
2017-06-20T15:42:27.740Z,32.90
2017-06-20T15:44:54.379Z,32.10
2017-06-20T15:47:21.631Z,32.20
2017-06-20T15:49:48.245Z,31.50
2017-06-20T15:52:14.887Z,31.30
2017-06-20T15:54:41.748Z,31.20
2017-06-20T15:57:08.465Z,30.80
2017-06-20T15:59:35.108Z,31.20
2017-06-20T16:02:01.766Z,33.10
2017-06-20T16:04:28.402Z,31.60
2017-06-20T16:06:55.020Z,32.80
2017-06-20T16:09:21.712Z,31.00
2017-06-20T16:11:49.137Z,31.20
2017-06-20T16:14:15.778Z,32.10
2017-06-20T16:16:43.233Z,31.80
2017-06-20T16:19:09.872Z,31.20
2017-06-20T16:21:36.511Z,31.30
2017-06-20T16:24:03.146Z,30.50
2017-06-20T16:26:29.765Z,32.80
2017-06-20T16:28:56.423Z,31.50
2017-06-20T16:31:23.033Z,31.70
2017-06-20T16:33:49.697Z,32.10
2017-06-20T16:36:17.261Z,30.90
2017-06-20T16:38:43.996Z,28.80
2017-06-20T16:41:12.069Z,30.20
2017-06-20T16:43:39.525Z,30.20
2017-06-20T16:46:06.163Z,30.10
2017-06-20T16:48:33.211Z,29.70
2017-06-20T16:50:59.848Z,30.00
2017-06-20T16:53:26.361Z,31.10
2017-06-20T16:55:53.125Z,31.40
2017-06-20T16:58:20.581Z,30.60
2017-06-20T17:00:47.197Z,30.60
2017-06-20T17:03:13.858Z,30.20
2017-06-20T17:05:40.474Z,28.90
2017-06-20T17:08:07.133Z,30.00
2017-06-20T17:10:34.490Z,30.00
2017-06-20T17:13:01.126Z,30.00
2017-06-20T17:15:28.378Z,31.40
2017-06-20T17:17:55.019Z,32.70
2017-06-20T17:20:22.657Z,33.00
2017-06-20T17:22:49.320Z,33.60
2017-06-20T17:25:15.930Z,33.80
2017-06-20T17:27:42.569Z,34.00
2017-06-20T17:30:10.254Z,35.10
2017-06-20T17:32:36.894Z,34.90
2017-06-20T17:35:03.530Z,35.20
2017-06-20T17:37:30.269Z,34.60
2017-06-20T17:39:56.909Z,34.50
2017-06-20T17:42:23.930Z,34.80
2017-06-20T17:44:50.695Z,34.80
2017-06-20T17:47:17.744Z,35.20
2017-06-20T17:49:44.588Z,35.70
2017-06-20T17:52:11.226Z,36.00
2017-06-20T17:54:37.968Z,36.50
2017-06-20T17:57:05.421Z,37.00
2017-06-20T17:59:32.032Z,36.90
2017-06-20T18:01:58.781Z,37.10
2017-06-20T18:04:25.413Z,37.40
2017-06-20T18:06:52.076Z,37.40
2017-06-20T18:09:18.715Z,37.70
2017-06-20T18:11:46.358Z,38.00
2017-06-20T18:14:13.117Z,38.10
2017-06-20T18:16:39.754Z,37.90
2017-06-20T18:19:06.391Z,38.10
2017-06-20T18:21:33.005Z,38.20
2017-06-20T18:23:59.668Z,38.50
2017-06-20T18:26:26.289Z,38.10
2017-06-20T18:28:52.943Z,38.60
2017-06-20T18:31:20.512Z,38.50
2017-06-20T18:33:47.244Z,38.60
2017-06-20T18:36:13.862Z,38.50
2017-06-20T18:38:40.492Z,38.80
2017-06-20T18:41:07.718Z,39.00
2017-06-20T18:43:36.253Z,39.00
2017-06-20T18:46:03.508Z,39.20
2017-06-20T18:48:30.144Z,39.40
2017-06-20T18:50:56.782Z,39.60
2017-06-20T18:53:23.419Z,39.70
2017-06-20T18:55:50.629Z,39.60
2017-06-20T18:58:17.789Z,40.00
2017-06-20T19:00:44.743Z,40.00
2017-06-20T19:03:12.000Z,39.90
2017-06-20T19:05:39.555Z,39.80
2017-06-20T19:08:10.615Z,40.00
2017-06-20T19:10:38.369Z,40.50
2017-06-20T19:13:06.060Z,40.40
2017-06-20T19:15:33.728Z,41.10
2017-06-20T19:18:01.064Z,41.20
2017-06-20T19:20:28.700Z,41.20
2017-06-20T19:22:56.386Z,41.20
2017-06-20T19:25:23.024Z,41.10
2017-06-20T19:27:50.149Z,40.70
2017-06-20T19:30:17.444Z,40.90
2017-06-20T19:32:45.158Z,40.80
2017-06-20T19:35:13.151Z,40.90
2017-06-20T19:37:40.597Z,40.80
2017-06-20T19:40:08.075Z,40.80
2017-06-20T19:42:34.927Z,40.80
2017-06-20T19:45:03.234Z,41.80
2017-06-20T19:47:32.637Z,41.00
2017-06-20T19:49:59.339Z,41.20
2017-06-20T19:52:26.601Z,41.60
2017-06-20T19:54:54.276Z,41.90
2017-06-20T19:57:21.302Z,42.30
2017-06-20T19:59:47.939Z,42.40
2017-06-20T20:02:15.600Z,43.20
2017-06-20T20:04:42.441Z,42.80
2017-06-20T20:07:11.171Z,42.70
2017-06-20T20:09:40.229Z,42.10
2017-06-20T20:12:07.701Z,42.30
2017-06-20T20:14:35.967Z,42.90
2017-06-20T20:17:03.143Z,43.00
2017-06-20T20:19:30.246Z,42.60
2017-06-20T20:21:57.182Z,42.50
2017-06-20T20:24:24.635Z,42.50
2017-06-20T20:26:51.501Z,43.00
2017-06-20T20:29:18.117Z,42.90
2017-06-20T20:31:45.231Z,42.90
2017-06-20T20:34:12.620Z,42.90
2017-06-20T20:36:39.281Z,43.10
2017-06-20T20:39:05.892Z,43.00
2017-06-20T20:41:32.642Z,43.10
2017-06-20T20:43:59.401Z,43.20
2017-06-20T20:46:26.038Z,43.00
2017-06-20T20:48:52.758Z,42.90
2017-06-20T20:51:20.033Z,43.20
2017-06-20T20:53:46.670Z,43.00
2017-06-20T20:56:13.307Z,42.30
2017-06-20T20:58:39.944Z,42.50
2017-06-20T21:01:06.583Z,42.60
2017-06-20T21:03:33.425Z,42.80
2017-06-20T21:06:00.617Z,43.30
2017-06-20T21:08:27.317Z,43.80
2017-06-20T21:10:53.957Z,44.50
2017-06-20T21:13:20.698Z,44.60
2017-06-20T21:15:47.943Z,45.30
2017-06-20T21:18:14.561Z,45.80
2017-06-20T21:20:41.169Z,46.20
2017-06-20T21:23:07.860Z,46.20
2017-06-20T21:25:34.498Z,46.90
2017-06-20T21:28:01.112Z,46.90
2017-06-20T21:30:27.773Z,47.30
2017-06-20T21:32:54.411Z,47.40
2017-06-20T21:35:21.025Z,47.70
2017-06-20T21:37:48.269Z,48.00
2017-06-20T21:40:14.912Z,48.50
2017-06-20T21:42:41.560Z,49.00
2017-06-20T21:45:08.216Z,49.10
2017-06-20T21:47:35.035Z,49.20
2017-06-20T21:50:01.701Z,48.80
2017-06-20T21:52:28.308Z,49.10
2017-06-20T21:54:55.448Z,49.10
2017-06-20T21:57:22.301Z,49.20
2017-06-20T21:59:48.966Z,49.60
2017-06-20T22:02:16.106Z,49.20
2017-06-20T22:04:42.856Z,49.50
2017-06-20T22:07:09.493Z,49.70
2017-06-20T22:09:36.131Z,49.90
2017-06-20T22:12:02.749Z,49.90
2017-06-20T22:14:44.333Z,50.00
2017-06-20T22:17:11.469Z,49.90
2017-06-20T22:19:38.247Z,50.00
2017-06-20T22:22:04.885Z,50.50
2017-06-20T22:24:31.468Z,50.50
2017-06-20T22:26:58.162Z,50.80
2017-06-20T22:29:24.799Z,50.80
2017-06-20T22:31:51.414Z,51.10
2017-06-20T22:34:18.075Z,51.10
2017-06-20T22:36:44.690Z,51.30
2017-06-20T22:39:11.352Z,51.40
2017-06-20T22:41:37.990Z,51.50
2017-06-20T22:44:04.627Z,51.80
2017-06-20T22:46:31.267Z,52.10
2017-06-20T22:48:58.519Z,52.20
2017-06-20T22:51:26.517Z,52.40
2017-06-20T22:53:53.841Z,52.80
2017-06-20T22:56:21.069Z,53.00
2017-06-20T22:58:47.708Z,53.20
2017-06-20T23:01:14.343Z,53.30
2017-06-20T23:03:41.007Z,53.30
2017-06-20T23:06:07.647Z,53.40
2017-06-20T23:08:34.284Z,53.40
2017-06-20T23:11:00.923Z,53.50
2017-06-20T23:13:27.559Z,53.40
2017-06-20T23:15:54.198Z,53.40
2017-06-20T23:18:20.836Z,53.50
2017-06-20T23:20:47.475Z,53.90
2017-06-20T23:23:14.112Z,53.90
2017-06-20T23:25:40.749Z,54.00
2017-06-20T23:28:07.389Z,54.40
2017-06-20T23:30:34.025Z,54.30
2017-06-20T23:33:00.663Z,54.50
2017-06-20T23:35:27.919Z,54.30
2017-06-20T23:37:54.949Z,54.60
2017-06-20T23:40:21.582Z,54.90
2017-06-20T23:42:48.211Z,55.10
2017-06-20T23:45:14.877Z,55.20
2017-06-20T23:47:41.514Z,55.70
2017-06-20T23:50:08.154Z,55.90
2017-06-20T23:52:35.406Z,55.70
2017-06-20T23:55:02.023Z,55.60
2017-06-20T23:57:29.201Z,55.70
2017-06-20T23:59:55.933Z,55.70
